Time,TemperatureF,DewpointF,PressureIn,WindDirection,WindDirectionDegrees,WindSpeedMPH,WindSpeedGustMPH,Humidity,HourlyPrecipIn,Conditions,Clouds,dailyrainin,SoftwareType,DateUTC
2013-01-25 00:03:00,29.0,17.9,30.05,ESE,113,2.5,4.7,63,0.00,,,0.00,WUHU216HW,2013-01-25 06:03:00,
2013-01-25 00:08:00,29.0,17.9,30.05,South,174,1.0,2.5,63,0.00,,,0.00,WUHU216HW,2013-01-25 06:08:00,
2013-01-25 00:13:00,29.0,18.3,30.05,South,180,0.9,2.5,64,0.00,,,0.00,WUHU216HW,2013-01-25 06:13:00,
2013-01-25 00:18:00,29.0,19.0,30.05,SE,140,1.4,2.9,66,0.00,,,0.00,WUHU216HW,2013-01-25 06:18:00,
2013-01-25 00:23:00,29.0,19.0,30.04,South,180,2.5,3.4,66,0.00,,,0.00,WUHU216HW,2013-01-25 06:23:00,
2013-01-25 00:28:00,28.8,19.6,30.04,SSE,158,1.6,3.4,68,0.00,,,0.00,WUHU216HW,2013-01-25 06:28:00,
2013-01-25 00:33:00,28.8,20.4,30.03,SE,135,3.4,4.0,70,0.00,,,0.00,WUHU216HW,2013-01-25 06:33:00,
2013-01-25 00:38:00,28.6,20.2,30.03,SE,135,3.4,4.0,70,0.00,,,0.00,WUHU216HW,2013-01-25 06:38:00,
2013-01-25 00:43:00,28.4,20.0,30.03,SSE,148,1.6,4.0,70,0.00,,,0.00,WUHU216HW,2013-01-25 06:43:00,
2013-01-25 00:48:00,28.4,20.3,30.03,South,180,2.7,3.6,71,0.00,,,0.00,WUHU216HW,2013-01-25 06:48:00,
2013-01-25 00:53:00,28.4,20.3,30.02,SSE,157,2.2,3.8,71,0.00,,,0.00,WUHU216HW,2013-01-25 06:53:00,
2013-01-25 00:58:00,28.4,20.9,30.02,SE,145,2.7,4.7,73,0.00,,,0.00,WUHU216HW,2013-01-25 06:58:00,
2013-01-25 01:03:00,28.4,20.9,30.01,SE,130,0.6,4.7,73,0.00,,,0.00,WUHU216HW,2013-01-25 07:03:00,
2013-01-25 01:08:00,28.4,21.5,30.02,SE,137,1.4,3.1,75,0.00,,,0.00,WUHU216HW,2013-01-25 07:08:00,
2013-01-25 01:13:00,28.4,21.5,30.03,SE,128,0.9,2.9,75,0.00,,,0.00,WUHU216HW,2013-01-25 07:13:00,
2013-01-25 01:18:00,28.3,21.3,30.03,SSE,154,0.6,2.9,75,0.00,,,0.00,WUHU216HW,2013-01-25 07:18:00,
2013-01-25 01:23:00,28.3,22.6,30.03,ESE,121,1.2,2.9,79,0.00,,,0.00,WUHU216HW,2013-01-25 07:23:00,
2013-01-25 01:28:00,28.1,22.7,30.02,SSE,147,1.2,4.7,80,0.00,,,0.00,WUHU216HW,2013-01-25 07:28:00,
2013-01-25 01:33:00,27.9,22.8,30.01,ESE,113,3.6,4.7,81,0.00,,,0.00,WUHU216HW,2013-01-25 07:33:00,
2013-01-25 01:38:00,27.7,22.9,30.01,SE,138,1.8,4.7,82,0.00,,,0.00,WUHU216HW,2013-01-25 07:38:00,
2013-01-25 01:43:00,27.7,22.9,30.01,SSE,152,1.5,4.7,82,0.00,,,0.00,WUHU216HW,2013-01-25 07:43:00,
2013-01-25 01:48:00,27.7,22.9,30.01,SE,141,1.2,4.0,82,0.00,,,0.00,WUHU216HW,2013-01-25 07:48:00,
2013-01-25 01:53:00,27.7,23.2,30.01,SE,133,2.1,3.6,83,0.00,,,0.00,WUHU216HW,2013-01-25 07:53:00,
2013-01-25 01:58:00,27.7,23.2,30.01,ESE,115,2.5,4.0,83,0.00,,,0.00,WUHU216HW,2013-01-25 07:58:00,
2013-01-25 02:03:00,27.7,23.5,30.00,SSE,158,1.8,4.0,84,0.00,,,0.00,WUHU216HW,2013-01-25 08:03:00,
2013-01-25 02:08:00,27.5,23.3,30.01,ESE,122,0.9,3.4,84,0.00,,,0.00,WUHU216HW,2013-01-25 08:08:00,
2013-01-25 02:13:00,27.7,23.2,30.00,SSE,158,0.4,3.4,83,0.00,,,0.00,WUHU216HW,2013-01-25 08:13:00,
2013-01-25 02:18:00,27.7,23.2,30.01,SE,134,1.9,3.1,83,0.00,,,0.00,WUHU216HW,2013-01-25 08:18:00,
2013-01-25 02:23:00,27.5,23.3,30.01,SE,133,0.7,3.1,84,0.00,,,0.00,WUHU216HW,2013-01-25 08:23:00,
2013-01-25 02:28:00,27.5,23.1,30.01,SE,145,0.7,1.8,83,0.00,,,0.00,WUHU216HW,2013-01-25 08:28:00,
2013-01-25 02:33:00,27.7,23.5,30.01,SE,137,0.8,3.6,84,0.00,,,0.00,WUHU216HW,2013-01-25 08:33:00,
2013-01-25 02:38:00,27.7,23.2,30.02,SE,137,0.9,3.6,83,0.00,,,0.00,WUHU216HW,2013-01-25 08:38:00,
2013-01-25 02:43:00,27.7,23.2,30.02,SE,135,0.4,1.6,83,0.00,,,0.00,WUHU216HW,2013-01-25 08:43:00,
2013-01-25 02:48:00,27.7,23.5,30.02,ESE,113,1.8,2.5,84,0.00,,,0.00,WUHU216HW,2013-01-25 08:48:00,
2013-01-25 02:53:00,27.5,23.3,30.01,East,90,0.4,2.5,84,0.00,,,0.00,WUHU216HW,2013-01-25 08:53:00,
2013-01-25 02:58:00,27.5,23.3,30.01,SE,135,0.2,2.2,84,0.00,,,0.00,WUHU216HW,2013-01-25 08:58:00,
2013-01-25 03:03:00,27.7,23.5,30.01,SSE,155,0.7,1.8,84,0.00,,,0.00,WUHU216HW,2013-01-25 09:03:00,
2013-01-25 03:08:00,27.7,23.2,30.01,South,180,0.2,1.8,83,0.00,,,0.00,WUHU216HW,2013-01-25 09:08:00,
2013-01-25 03:13:00,27.7,23.2,30.01,ESE,122,0.6,1.1,83,0.00,,,0.00,WUHU216HW,2013-01-25 09:13:00,
2013-01-25 03:18:00,27.7,23.5,30.00,ESE,113,2.0,2.0,84,0.00,,,0.00,WUHU216HW,2013-01-25 09:18:00,
2013-01-25 03:23:00,27.7,23.2,30.00,ESE,123,0.5,2.0,83,0.00,,,0.00,WUHU216HW,2013-01-25 09:23:00,
2013-01-25 03:28:00,27.7,23.2,30.00,SE,141,0.3,2.0,83,0.00,,,0.00,WUHU216HW,2013-01-25 09:28:00,
2013-01-25 03:33:00,27.7,23.5,30.00,ESE,113,0.4,1.1,84,0.00,,,0.00,WUHU216HW,2013-01-25 09:33:00,
2013-01-25 03:38:00,27.7,23.5,30.00,SSE,158,0.2,1.1,84,0.00,,,0.00,WUHU216HW,2013-01-25 09:38:00,
2013-01-25 03:43:00,27.7,22.9,30.01,SSW,209,0.3,0.9,82,0.00,,,0.00,WUHU216HW,2013-01-25 09:43:00,
2013-01-25 03:48:00,27.7,22.9,30.02,SSW,203,0.2,0.9,82,0.00,,,0.00,WUHU216HW,2013-01-25 09:48:00,
2013-01-25 03:53:00,27.7,23.2,30.01,SSE,162,0.7,1.6,83,0.00,,,0.00,WUHU216HW,2013-01-25 09:53:00,
2013-01-25 03:58:00,27.7,23.2,30.01,SSE,158,0.0,1.6,83,0.00,,,0.00,WUHU216HW,2013-01-25 09:58:00,
2013-01-25 04:03:00,27.5,23.1,30.01,SE,142,0.3,0.4,83,0.00,,,0.00,WUHU216HW,2013-01-25 10:03:00,
2013-01-25 04:08:00,27.5,23.1,30.01,SSE,158,0.0,0.7,83,0.00,,,0.00,WUHU216HW,2013-01-25 10:08:00,
2013-01-25 04:13:00,27.7,23.2,30.01,SE,135,0.4,0.7,83,0.00,,,0.00,WUHU216HW,2013-01-25 10:13:00,
2013-01-25 04:18:00,27.5,23.3,30.00,South,175,0.3,0.9,84,0.00,,,0.00,WUHU216HW,2013-01-25 10:18:00,
2013-01-25 04:23:00,27.7,23.2,30.00,ESE,113,0.4,0.9,83,0.00,,,0.00,WUHU216HW,2013-01-25 10:23:00,
2013-01-25 04:28:00,27.5,23.1,30.00,SE,133,0.4,1.1,83,0.00,,,0.00,WUHU216HW,2013-01-25 10:28:00,
2013-01-25 04:33:00,27.5,23.1,29.99,SSW,195,0.3,1.1,83,0.00,,,0.00,WUHU216HW,2013-01-25 10:33:00,
2013-01-25 04:38:00,27.5,23.1,29.99,SSE,158,0.1,1.1,83,0.00,,,0.00,WUHU216HW,2013-01-25 10:38:00,
2013-01-25 04:43:00,27.5,23.1,29.99,SSW,194,0.2,1.1,83,0.00,,,0.00,WUHU216HW,2013-01-25 10:43:00,
2013-01-25 04:48:00,27.7,23.2,30.00,SW,225,0.4,1.1,83,0.00,,,0.00,WUHU216HW,2013-01-25 10:48:00,
2013-01-25 04:53:00,27.7,23.2,30.00,SSW,203,0.0,0.4,83,0.00,,,0.00,WUHU216HW,2013-01-25 10:53:00,
2013-01-25 04:58:00,27.7,23.2,30.00,SW,225,0.2,1.1,83,0.00,,,0.00,WUHU216HW,2013-01-25 10:58:00,
2013-01-25 05:03:00,27.7,23.2,30.00,SW,225,0.9,1.1,83,0.00,,,0.00,WUHU216HW,2013-01-25 11:03:00,
2013-01-25 05:08:00,27.7,23.5,29.99,SSE,147,0.5,1.1,84,0.00,,,0.00,WUHU216HW,2013-01-25 11:08:00,
2013-01-25 05:13:00,27.7,23.5,29.99,SE,142,0.1,1.1,84,0.00,,,0.00,WUHU216HW,2013-01-25 11:13:00,
2013-01-25 05:18:00,27.7,23.5,29.99,SE,139,0.6,0.9,84,0.00,,,0.00,WUHU216HW,2013-01-25 11:18:00,
2013-01-25 05:23:00,27.7,23.5,30.00,SSW,203,0.4,1.1,84,0.00,,,0.00,WUHU216HW,2013-01-25 11:23:00,
2013-01-25 05:28:00,27.7,23.8,29.99,ESE,113,0.4,1.1,85,0.00,,,0.00,WUHU216HW,2013-01-25 11:28:00,
2013-01-25 05:33:00,27.7,23.5,29.99,SSW,203,0.2,0.9,84,0.00,,,0.00,WUHU216HW,2013-01-25 11:33:00,
2013-01-25 05:38:00,27.7,23.5,29.99,SSW,205,0.3,0.9,84,0.00,,,0.00,WUHU216HW,2013-01-25 11:38:00,
2013-01-25 05:43:00,27.7,23.5,30.00,WSW,248,0.2,0.9,84,0.00,,,0.00,WUHU216HW,2013-01-25 11:43:00,
2013-01-25 05:48:00,27.7,23.5,30.00,SW,225,0.2,1.1,84,0.00,,,0.00,WUHU216HW,2013-01-25 11:48:00,
2013-01-25 05:53:00,27.7,23.2,30.00,SW,225,0.2,1.1,83,0.00,,,0.00,WUHU216HW,2013-01-25 11:53:00,
2013-01-25 05:58:00,27.9,23.4,30.01,SW,236,0.2,0.7,83,0.00,,,0.00,WUHU216HW,2013-01-25 11:58:00,
2013-01-25 06:03:00,27.9,23.4,30.01,SSE,158,0.0,0.7,83,0.00,,,0.00,WUHU216HW,2013-01-25 12:03:00,
2013-01-25 06:08:00,27.9,23.4,30.01,South,180,0.0,0.4,83,0.00,,,0.00,WUHU216HW,2013-01-25 12:08:00,
2013-01-25 06:13:00,28.1,23.6,30.00,SSE,158,0.2,0.2,83,0.00,,,0.00,WUHU216HW,2013-01-25 12:13:00,
2013-01-25 06:18:00,28.1,23.6,30.01,South,190,0.3,0.4,83,0.00,,,0.00,WUHU216HW,2013-01-25 12:18:00,
2013-01-25 06:23:00,28.1,23.6,30.01,SSE,158,0.0,0.7,83,0.00,,,0.00,WUHU216HW,2013-01-25 12:23:00,
2013-01-25 06:28:00,28.1,23.6,30.01,SSW,203,0.2,0.7,83,0.00,,,0.00,WUHU216HW,2013-01-25 12:28:00,
2013-01-25 06:33:00,28.3,23.8,30.01,South,180,0.2,1.1,83,0.00,,,0.00,WUHU216HW,2013-01-25 12:33:00,
2013-01-25 06:38:00,28.3,23.4,30.01,SSW,203,0.2,1.1,82,0.00,,,0.00,WUHU216HW,2013-01-25 12:38:00,
2013-01-25 06:43:00,28.3,24.0,30.01,SE,139,0.3,1.1,84,0.00,,,0.00,WUHU216HW,2013-01-25 12:43:00,
2013-01-25 06:48:00,28.3,24.0,30.01,SSW,203,0.9,1.6,84,0.00,,,0.00,WUHU216HW,2013-01-25 12:48:00,
2013-01-25 06:53:00,28.3,24.0,30.01,SSW,203,2.2,2.2,84,0.00,,,0.00,WUHU216HW,2013-01-25 12:53:00,
2013-01-25 06:58:00,28.3,24.3,30.01,West,270,1.1,2.2,85,0.00,,,0.00,WUHU216HW,2013-01-25 12:58:00,
2013-01-25 07:03:00,28.3,24.3,30.02,SW,218,0.4,2.2,85,0.00,,,0.00,WUHU216HW,2013-01-25 13:03:00,
2013-01-25 07:08:00,28.4,24.5,30.03,SW,214,0.3,1.1,85,0.00,,,0.00,WUHU216HW,2013-01-25 13:08:00,
2013-01-25 07:13:00,28.4,24.2,30.03,SW,225,0.4,1.1,84,0.00,,,0.00,WUHU216HW,2013-01-25 13:13:00,
2013-01-25 07:18:00,28.4,24.5,30.02,SW,235,0.6,1.8,85,0.00,,,0.00,WUHU216HW,2013-01-25 13:18:00,
2013-01-25 07:23:00,28.4,24.8,30.03,SW,233,0.3,1.8,86,0.00,,,0.00,WUHU216HW,2013-01-25 13:23:00,
2013-01-25 07:28:00,28.4,24.8,30.03,SW,234,1.4,2.5,86,0.00,,,0.00,WUHU216HW,2013-01-25 13:28:00,
2013-01-25 07:33:00,28.4,24.8,30.02,SW,225,0.2,2.5,86,0.00,,,0.00,WUHU216HW,2013-01-25 13:33:00,
2013-01-25 07:38:00,28.4,24.8,30.03,NNW,338,0.4,2.5,86,0.00,,,0.00,WUHU216HW,2013-01-25 13:38:00,
2013-01-25 07:43:00,28.6,24.9,30.03,SW,225,0.2,0.9,86,0.00,,,0.00,WUHU216HW,2013-01-25 13:43:00,
2013-01-25 07:48:00,28.6,24.9,30.04,NW,315,0.4,0.9,86,0.00,,,0.00,WUHU216HW,2013-01-25 13:48:00,
2013-01-25 07:53:00,28.8,25.1,30.04,West,263,0.3,0.9,86,0.00,,,0.00,WUHU216HW,2013-01-25 13:53:00,
2013-01-25 07:58:00,29.0,25.0,30.04,WSW,248,0.2,0.7,85,0.00,,,0.00,WUHU216HW,2013-01-25 13:58:00,
2013-01-25 08:03:00,29.2,25.5,30.04,WNW,293,0.4,0.7,86,0.00,,,0.00,WUHU216HW,2013-01-25 14:03:00,
2013-01-25 08:08:00,29.3,25.4,30.04,WNW,293,0.2,0.4,85,0.00,,,0.00,WUHU216HW,2013-01-25 14:08:00,
2013-01-25 08:13:00,29.5,25.6,30.05,NNW,338,0.2,0.4,85,0.00,,,0.00,WUHU216HW,2013-01-25 14:13:00,
2013-01-25 08:18:00,29.5,25.6,30.05,NNW,348,0.2,1.1,85,0.00,,,0.00,WUHU216HW,2013-01-25 14:18:00,
2013-01-25 08:23:00,29.9,25.9,30.05,North,0,0.4,1.1,85,0.00,,,0.00,WUHU216HW,2013-01-25 14:23:00,
2013-01-25 08:28:00,29.9,25.7,30.05,NW,308,0.4,1.1,84,0.00,,,0.00,WUHU216HW,2013-01-25 14:28:00,
2013-01-25 08:33:00,30.2,26.3,30.05,NW,315,0.4,1.1,85,0.00,,,0.00,WUHU216HW,2013-01-25 14:33:00,
2013-01-25 08:38:00,30.4,26.5,30.05,NW,326,0.2,0.9,85,0.00,,,0.00,WUHU216HW,2013-01-25 14:38:00,
2013-01-25 08:43:00,30.8,26.8,30.05,NW,313,0.5,0.9,85,0.00,,,0.00,WUHU216HW,2013-01-25 14:43:00,
2013-01-25 08:48:00,31.1,26.9,30.05,North,0,0.7,1.3,84,0.00,,,0.00,WUHU216HW,2013-01-25 14:48:00,
2013-01-25 08:53:00,31.5,27.0,30.05,North,0,1.1,1.8,83,0.00,,,0.00,WUHU216HW,2013-01-25 14:53:00,
2013-01-25 08:58:00,31.7,26.8,30.05,NW,325,1.0,4.0,82,0.00,,,0.00,WUHU216HW,2013-01-25 14:58:00,
2013-01-25 09:03:00,31.7,26.6,30.05,North,355,1.7,4.0,81,0.00,,,0.00,WUHU216HW,2013-01-25 15:03:00,
2013-01-25 09:08:00,32.0,26.9,30.06,North,0,0.9,3.6,81,0.00,,,0.00,WUHU216HW,2013-01-25 15:08:00,
2013-01-25 09:13:00,32.4,27.0,30.06,WNW,293,2.2,3.4,80,0.00,,,0.00,WUHU216HW,2013-01-25 15:13:00,
2013-01-25 09:18:00,32.8,27.3,30.06,NW,315,1.1,3.6,80,0.00,,,0.00,WUHU216HW,2013-01-25 15:18:00,
2013-01-25 09:23:00,32.8,27.0,30.07,NW,313,3.2,5.4,79,0.00,,,0.00,WUHU216HW,2013-01-25 15:23:00,
2013-01-25 09:28:00,33.1,27.0,30.06,NW,315,2.7,5.4,78,0.00,,,0.00,WUHU216HW,2013-01-25 15:28:00,
2013-01-25 09:33:00,33.5,27.3,30.07,North,0,1.8,4.0,78,0.00,,,0.00,WUHU216HW,2013-01-25 15:33:00,
2013-01-25 09:38:00,33.8,27.3,30.06,NNW,338,2.9,4.9,77,0.00,,,0.00,WUHU216HW,2013-01-25 15:38:00,
2013-01-25 09:43:00,34.2,27.4,30.07,NW,320,2.9,4.9,76,0.00,,,0.00,WUHU216HW,2013-01-25 15:43:00,
2013-01-25 09:48:00,34.4,27.2,30.07,WNW,285,3.7,4.9,75,0.00,,,0.00,WUHU216HW,2013-01-25 15:48:00,
2013-01-25 09:53:00,34.9,28.1,30.07,North,0,2.5,4.9,76,0.00,,,0.00,WUHU216HW,2013-01-25 15:53:00,
2013-01-25 09:58:00,35.6,27.8,30.07,NW,322,3.5,5.4,73,0.00,,,0.00,WUHU216HW,2013-01-25 15:58:00,
2013-01-25 10:03:00,36.0,28.2,30.07,NW,315,3.1,5.4,73,0.00,,,0.00,WUHU216HW,2013-01-25 16:03:00,
2013-01-25 10:08:00,36.2,28.0,30.07,NNW,338,3.4,4.7,72,0.00,,,0.00,WUHU216HW,2013-01-25 16:08:00,
2013-01-25 10:13:00,37.3,28.8,30.07,West,270,2.9,5.4,71,0.00,,,0.00,WUHU216HW,2013-01-25 16:13:00,
2013-01-25 10:18:00,38.0,28.4,30.07,NW,315,3.4,5.6,68,0.00,,,0.00,WUHU216HW,2013-01-25 16:18:00,
2013-01-25 10:23:00,38.5,28.8,30.07,North,352,3.1,5.6,68,0.00,,,0.00,WUHU216HW,2013-01-25 16:23:00,
2013-01-25 10:28:00,38.7,28.6,30.07,North,357,5.2,8.9,67,0.00,,,0.00,WUHU216HW,2013-01-25 16:28:00,
2013-01-25 10:33:00,38.9,28.5,30.06,NNW,342,2.9,8.9,66,0.00,,,0.00,WUHU216HW,2013-01-25 16:33:00,
2013-01-25 10:38:00,39.2,28.7,30.07,NNW,344,3.9,6.3,66,0.00,,,0.00,WUHU216HW,2013-01-25 16:38:00,
2013-01-25 10:43:00,39.2,28.4,30.07,North,0,3.4,5.6,65,0.00,,,0.00,WUHU216HW,2013-01-25 16:43:00,
2013-01-25 10:48:00,39.1,28.2,30.07,North,349,4.2,8.9,65,0.00,,,0.00,WUHU216HW,2013-01-25 16:48:00,
2013-01-25 10:53:00,39.1,28.2,30.07,North,0,7.2,8.9,65,0.00,,,0.00,WUHU216HW,2013-01-25 16:53:00,
2013-01-25 10:58:00,39.6,28.4,30.07,North,0,4.0,7.2,64,0.00,,,0.00,WUHU216HW,2013-01-25 16:58:00,
2013-01-25 11:03:00,39.6,28.4,30.07,NNW,345,3.1,6.7,64,0.00,,,0.00,WUHU216HW,2013-01-25 17:03:00,
2013-01-25 11:08:00,39.8,28.5,30.07,NNW,338,5.4,7.6,64,0.00,,,0.00,WUHU216HW,2013-01-25 17:08:00,
2013-01-25 11:13:00,40.1,29.3,30.07,NNE,17,6.2,7.6,65,0.00,,,0.00,WUHU216HW,2013-01-25 17:13:00,
2013-01-25 11:18:00,40.7,29.1,30.07,WNW,293,2.7,7.4,63,0.00,,,0.00,WUHU216HW,2013-01-25 17:18:00,
2013-01-25 11:23:00,40.5,28.4,30.07,NW,310,4.0,6.5,62,0.00,,,0.00,WUHU216HW,2013-01-25 17:23:00,
2013-01-25 11:28:00,40.5,28.9,30.07,North,356,4.1,5.6,63,0.00,,,0.00,WUHU216HW,2013-01-25 17:28:00,
2013-01-25 11:33:00,40.7,29.1,30.07,NW,310,1.3,5.4,63,0.00,,,0.00,WUHU216HW,2013-01-25 17:33:00,
2013-01-25 11:38:00,41.4,29.3,30.07,NNW,338,4.6,5.6,62,0.00,,,0.00,WUHU216HW,2013-01-25 17:38:00,
2013-01-25 11:43:00,41.4,29.0,30.07,WNW,295,1.6,5.6,61,0.00,,,0.00,WUHU216HW,2013-01-25 17:43:00,
2013-01-25 11:48:00,41.6,29.2,30.07,North,0,4.0,5.4,61,0.00,,,0.00,WUHU216HW,2013-01-25 17:48:00,
2013-01-25 11:53:00,41.8,28.9,30.07,NNW,338,2.7,5.4,60,0.00,,,0.00,WUHU216HW,2013-01-25 17:53:00,
2013-01-25 11:58:00,41.9,29.1,30.07,NW,315,1.8,5.6,60,0.00,,,0.00,WUHU216HW,2013-01-25 17:58:00,
2013-01-25 12:03:00,41.9,28.6,30.07,North,0,3.1,5.6,59,0.00,,,0.00,WUHU216HW,2013-01-25 18:03:00,
2013-01-25 12:08:00,42.1,28.4,30.07,NW,304,4.0,6.3,58,0.00,,,0.00,WUHU216HW,2013-01-25 18:08:00,
2013-01-25 12:13:00,42.1,27.9,30.07,West,270,3.6,6.3,57,0.00,,,0.00,WUHU216HW,2013-01-25 18:13:00,
2013-01-25 12:18:00,42.1,28.4,30.07,WSW,248,3.1,5.4,58,0.00,,,0.00,WUHU216HW,2013-01-25 18:18:00,
2013-01-25 12:23:00,42.7,28.5,30.07,NW,315,2.2,5.4,57,0.00,,,0.00,WUHU216HW,2013-01-25 18:23:00,
2013-01-25 12:28:00,42.8,28.2,30.06,North,0,4.0,5.4,56,0.00,,,0.00,WUHU216HW,2013-01-25 18:28:00,
2013-01-25 12:33:00,42.8,27.7,30.06,NW,317,2.2,6.3,55,0.00,,,0.00,WUHU216HW,2013-01-25 18:33:00,
2013-01-25 12:38:00,43.2,28.1,30.06,North,0,2.8,6.3,55,0.00,,,0.00,WUHU216HW,2013-01-25 18:38:00,
2013-01-25 12:43:00,42.8,27.7,30.07,NNW,338,5.1,8.5,55,0.00,,,0.00,WUHU216HW,2013-01-25 18:43:00,
2013-01-25 12:48:00,43.0,28.4,30.06,North,0,3.4,8.5,56,0.00,,,0.00,WUHU216HW,2013-01-25 18:48:00,
2013-01-25 12:53:00,43.2,27.6,30.07,NW,315,4.5,6.3,54,0.00,,,0.00,WUHU216HW,2013-01-25 18:53:00,
2013-01-25 12:58:00,43.2,27.6,30.06,West,270,3.1,6.3,54,0.00,,,0.00,WUHU216HW,2013-01-25 18:58:00,
2013-01-25 13:03:00,43.6,28.0,30.06,West,270,2.0,3.1,54,0.00,,,0.00,WUHU216HW,2013-01-25 19:03:00,
2013-01-25 13:08:00,44.1,28.9,30.07,NNE,23,4.0,4.0,55,0.00,,,0.00,WUHU216HW,2013-01-25 19:08:00,
2013-01-25 13:13:00,45.0,28.5,30.06,NNW,327,3.8,4.0,52,0.00,,,0.00,WUHU216HW,2013-01-25 19:13:00,
2013-01-25 13:18:00,45.0,28.9,30.06,NW,315,4.0,4.0,53,0.00,,,0.00,WUHU216HW,2013-01-25 19:18:00,
2013-01-25 13:23:00,45.4,28.7,30.06,North,0,5.4,5.4,52,0.00,,,0.00,WUHU216HW,2013-01-25 19:23:00,
2013-01-25 13:28:00,45.2,29.0,30.06,NW,315,2.5,5.4,53,0.00,,,0.00,WUHU216HW,2013-01-25 19:28:00,
2013-01-25 13:33:00,45.0,28.9,30.06,NNE,23,4.0,5.4,53,0.00,,,0.00,WUHU216HW,2013-01-25 19:33:00,
2013-01-25 13:38:00,45.0,28.9,30.07,West,280,2.9,5.4,53,0.00,,,0.00,WUHU216HW,2013-01-25 19:38:00,
2013-01-25 13:43:00,45.5,28.9,30.07,NNW,338,2.7,4.0,52,0.00,,,0.00,WUHU216HW,2013-01-25 19:43:00,
2013-01-25 13:48:00,46.1,27.9,30.07,WNW,293,3.1,4.3,49,0.00,,,0.00,WUHU216HW,2013-01-25 19:48:00,
2013-01-25 13:53:00,46.1,28.9,30.06,NW,320,3.2,4.5,51,0.00,,,0.00,WUHU216HW,2013-01-25 19:53:00,
2013-01-25 13:58:00,45.9,27.8,30.06,WNW,293,2.3,4.5,49,0.00,,,0.00,WUHU216HW,2013-01-25 19:58:00,
2013-01-25 14:03:00,46.4,29.3,30.07,North,0,2.5,3.1,51,0.00,,,0.00,WUHU216HW,2013-01-25 20:03:00,
2013-01-25 14:08:00,46.8,28.6,30.07,NW,315,2.2,5.4,49,0.00,,,0.00,WUHU216HW,2013-01-25 20:08:00,
2013-01-25 14:13:00,46.8,29.2,30.07,NNE,23,3.4,5.4,50,0.00,,,0.00,WUHU216HW,2013-01-25 20:13:00,
2013-01-25 14:18:00,47.0,28.7,30.06,NW,315,2.9,3.4,49,0.00,,,0.00,WUHU216HW,2013-01-25 20:18:00,
2013-01-25 14:23:00,47.2,28.4,30.06,NW,315,4.3,4.3,48,0.00,,,0.00,WUHU216HW,2013-01-25 20:23:00,
2013-01-25 14:28:00,47.3,29.1,30.06,North,0,4.0,4.3,49,0.00,,,0.00,WUHU216HW,2013-01-25 20:28:00,
2013-01-25 14:33:00,47.3,28.5,30.06,North,0,4.7,8.1,48,0.00,,,0.00,WUHU216HW,2013-01-25 20:33:00,
2013-01-25 14:38:00,47.5,28.7,30.06,North,2,2.8,8.1,48,0.00,,,0.00,WUHU216HW,2013-01-25 20:38:00,
2013-01-25 14:43:00,47.9,29.5,30.05,North,0,4.3,4.3,49,0.00,,,0.00,WUHU216HW,2013-01-25 20:43:00,
2013-01-25 14:48:00,48.1,28.6,30.06,NW,324,1.5,4.3,47,0.00,,,0.00,WUHU216HW,2013-01-25 20:48:00,
2013-01-25 14:53:00,48.1,28.6,30.06,NNW,338,2.7,2.7,47,0.00,,,0.00,WUHU216HW,2013-01-25 20:53:00,
2013-01-25 14:58:00,48.2,29.3,30.05,NNE,23,5.4,5.4,48,0.00,,,0.00,WUHU216HW,2013-01-25 20:58:00,
2013-01-25 15:03:00,48.2,28.3,30.05,NNW,338,3.1,5.4,46,0.00,,,0.00,WUHU216HW,2013-01-25 21:03:00,
2013-01-25 15:08:00,48.6,29.2,30.05,North,354,4.8,6.9,47,0.00,,,0.00,WUHU216HW,2013-01-25 21:08:00,
2013-01-25 15:13:00,49.0,29.0,30.05,NNW,337,2.7,6.9,46,0.00,,,0.00,WUHU216HW,2013-01-25 21:13:00,
2013-01-25 15:18:00,49.0,29.0,30.05,NNW,338,1.8,3.1,46,0.00,,,0.00,WUHU216HW,2013-01-25 21:18:00,
2013-01-25 15:23:00,49.0,29.0,30.05,West,270,2.0,3.4,46,0.00,,,0.00,WUHU216HW,2013-01-25 21:23:00,
2013-01-25 15:28:00,49.0,29.0,30.05,West,278,2.3,3.4,46,0.00,,,0.00,WUHU216HW,2013-01-25 21:28:00,
2013-01-25 15:33:00,48.8,28.3,30.06,WNW,303,2.9,3.1,45,0.00,,,0.00,WUHU216HW,2013-01-25 21:33:00,
2013-01-25 15:38:00,48.8,28.8,30.06,SW,216,1.6,3.1,46,0.00,,,0.00,WUHU216HW,2013-01-25 21:38:00,
2013-01-25 15:43:00,48.6,28.6,30.06,NW,323,1.5,3.4,46,0.00,,,0.00,WUHU216HW,2013-01-25 21:43:00,
2013-01-25 15:48:00,48.2,28.3,30.06,WNW,298,0.8,3.4,46,0.00,,,0.00,WUHU216HW,2013-01-25 21:48:00,
2013-01-25 15:53:00,47.9,28.4,30.06,WNW,303,1.5,3.4,47,0.00,,,0.00,WUHU216HW,2013-01-25 21:53:00,
2013-01-25 15:58:00,47.5,28.2,30.06,NNW,338,2.9,3.4,47,0.00,,,0.00,WUHU216HW,2013-01-25 21:58:00,
2013-01-25 16:03:00,47.3,28.0,30.07,SW,225,1.1,2.9,47,0.00,,,0.00,WUHU216HW,2013-01-25 22:03:00,
2013-01-25 16:08:00,47.5,28.7,30.07,NW,304,1.7,2.0,48,0.00,,,0.00,WUHU216HW,2013-01-25 22:08:00,
2013-01-25 16:13:00,47.5,28.2,30.07,NW,315,1.8,2.0,47,0.00,,,0.00,WUHU216HW,2013-01-25 22:13:00,
2013-01-25 16:18:00,47.5,28.2,30.06,NW,322,1.8,2.5,47,0.00,,,0.00,WUHU216HW,2013-01-25 22:18:00,
2013-01-25 16:23:00,47.3,28.0,30.07,North,351,1.9,2.5,47,0.00,,,0.00,WUHU216HW,2013-01-25 22:23:00,
2013-01-25 16:28:00,47.0,27.6,30.07,WNW,293,2.5,2.9,47,0.00,,,0.00,WUHU216HW,2013-01-25 22:28:00,
2013-01-25 16:33:00,46.6,27.9,30.07,North,0,1.6,3.4,48,0.00,,,0.00,WUHU216HW,2013-01-25 22:33:00,
2013-01-25 16:38:00,46.4,27.7,30.07,WSW,248,2.5,3.4,48,0.00,,,0.00,WUHU216HW,2013-01-25 22:38:00,
2013-01-25 16:43:00,46.3,28.1,30.07,North,0,1.9,2.7,49,0.00,,,0.00,WUHU216HW,2013-01-25 22:43:00,
2013-01-25 16:48:00,45.9,27.8,30.07,NNE,23,2.0,2.7,49,0.00,,,0.00,WUHU216HW,2013-01-25 22:48:00,
2013-01-25 16:53:00,45.7,28.2,30.07,North,0,1.5,2.0,50,0.00,,,0.00,WUHU216HW,2013-01-25 22:53:00,
2013-01-25 16:58:00,45.4,27.8,30.07,NNE,13,0.8,1.6,50,0.00,,,0.00,WUHU216HW,2013-01-25 22:58:00,
2013-01-25 17:03:00,45.2,27.6,30.07,North,0,1.0,1.6,50,0.00,,,0.00,WUHU216HW,2013-01-25 23:03:00,
2013-01-25 17:08:00,45.0,28.0,30.07,North,0,1.3,1.3,51,0.00,,,0.00,WUHU216HW,2013-01-25 23:08:00,
2013-01-25 17:13:00,44.6,27.6,30.07,NNW,338,0.9,1.6,51,0.00,,,0.00,WUHU216HW,2013-01-25 23:13:00,
2013-01-25 17:18:00,44.6,27.6,30.07,NNW,346,0.9,1.6,51,0.00,,,0.00,WUHU216HW,2013-01-25 23:18:00,
2013-01-25 17:23:00,44.3,27.7,30.07,NNW,338,1.1,1.1,52,0.00,,,0.00,WUHU216HW,2013-01-25 23:23:00,
2013-01-25 17:28:00,44.1,27.5,30.07,NNW,338,1.6,1.6,52,0.00,,,0.00,WUHU216HW,2013-01-25 23:28:00,
2013-01-25 17:33:00,43.9,27.5,30.06,NNE,23,1.1,1.6,52,0.00,,,0.00,WUHU216HW,2013-01-25 23:33:00,
2013-01-25 17:38:00,43.6,27.1,30.06,NNW,338,0.0,1.1,52,0.00,,,0.00,WUHU216HW,2013-01-25 23:38:00,
2013-01-25 17:43:00,43.4,27.4,30.06,North,0,0.4,0.7,53,0.00,,,0.00,WUHU216HW,2013-01-25 23:43:00,
2013-01-25 17:48:00,43.2,27.2,30.06,NNW,338,0.6,0.7,53,0.00,,,0.00,WUHU216HW,2013-01-25 23:48:00,
2013-01-25 17:53:00,42.8,26.8,30.06,NNW,338,0.4,0.7,53,0.00,,,0.00,WUHU216HW,2013-01-25 23:53:00,
2013-01-25 17:58:00,42.5,26.6,30.07,NNW,334,0.3,0.7,53,0.00,,,0.00,WUHU216HW,2013-01-25 23:58:00,
2013-01-25 18:03:00,42.3,26.4,30.07,NW,315,0.4,0.4,53,0.00,,,0.00,WUHU216HW,2013-01-26 00:03:00,
2013-01-25 18:08:00,42.1,26.2,30.07,North,0,0.4,0.4,53,0.00,,,0.00,WUHU216HW,2013-01-26 00:08:00,
2013-01-25 18:13:00,41.9,26.0,30.07,North,0,1.1,1.1,53,0.00,,,0.00,WUHU216HW,2013-01-26 00:13:00,
2013-01-25 18:18:00,42.1,26.7,30.07,North,0,1.6,1.6,54,0.00,,,0.00,WUHU216HW,2013-01-26 00:18:00,
2013-01-25 18:23:00,42.1,26.7,30.07,North,10,1.5,2.2,54,0.00,,,0.00,WUHU216HW,2013-01-26 00:23:00,
2013-01-25 18:28:00,42.1,26.7,30.08,North,8,1.3,2.2,54,0.00,,,0.00,WUHU216HW,2013-01-26 00:28:00,
2013-01-25 18:33:00,41.9,26.5,30.08,North,0,1.6,1.8,54,0.00,,,0.00,WUHU216HW,2013-01-26 00:33:00,
2013-01-25 18:38:00,41.8,26.3,30.08,NNE,23,1.1,1.8,54,0.00,,,0.00,WUHU216HW,2013-01-26 00:38:00,
2013-01-25 18:43:00,41.8,26.3,30.07,North,0,1.3,1.6,54,0.00,,,0.00,WUHU216HW,2013-01-26 00:43:00,
2013-01-25 18:48:00,41.6,26.1,30.07,North,2,1.3,1.8,54,0.00,,,0.00,WUHU216HW,2013-01-26 00:48:00,
2013-01-25 18:53:00,41.4,25.9,30.07,North,0,0.4,1.8,54,0.00,,,0.00,WUHU216HW,2013-01-26 00:53:00,
2013-01-25 18:58:00,41.0,26.0,30.08,North,0,0.9,1.1,55,0.00,,,0.00,WUHU216HW,2013-01-26 00:58:00,
2013-01-25 19:03:00,40.9,25.8,30.08,North,0,1.1,1.6,55,0.00,,,0.00,WUHU216HW,2013-01-26 01:03:00,
2013-01-25 19:08:00,40.7,26.1,30.08,North,0,0.4,1.6,56,0.00,,,0.00,WUHU216HW,2013-01-26 01:08:00,
2013-01-25 19:13:00,40.3,25.7,30.08,North,0,0.1,1.1,56,0.00,,,0.00,WUHU216HW,2013-01-26 01:13:00,
2013-01-25 19:18:00,40.0,25.4,30.08,North,0,0.0,0.4,56,0.00,,,0.00,WUHU216HW,2013-01-26 01:18:00,
2013-01-25 19:23:00,39.8,25.3,30.09,NNW,338,0.0,0.0,56,0.00,,,0.00,WUHU216HW,2013-01-26 01:23:00,
2013-01-25 19:28:00,39.6,25.1,30.09,NNW,338,0.0,0.0,56,0.00,,,0.00,WUHU216HW,2013-01-26 01:28:00,
2013-01-25 19:33:00,39.2,25.2,30.09,NNW,338,0.0,0.0,57,0.00,,,0.00,WUHU216HW,2013-01-26 01:33:00,
2013-01-25 19:38:00,39.1,25.0,30.09,NNW,338,0.0,0.0,57,0.00,,,0.00,WUHU216HW,2013-01-26 01:38:00,
2013-01-25 19:43:00,38.7,24.7,30.09,NNW,338,0.0,0.0,57,0.00,,,0.00,WUHU216HW,2013-01-26 01:43:00,
2013-01-25 19:48:00,38.5,24.9,30.09,NNW,338,0.0,0.0,58,0.00,,,0.00,WUHU216HW,2013-01-26 01:48:00,
2013-01-25 19:53:00,38.3,24.8,30.09,NNW,338,0.0,0.0,58,0.00,,,0.00,WUHU216HW,2013-01-26 01:53:00,
2013-01-25 19:58:00,38.0,24.5,30.09,NNW,338,0.0,0.0,58,0.00,,,0.00,WUHU216HW,2013-01-26 01:58:00,
2013-01-25 20:03:00,38.0,24.9,30.09,NNE,23,1.8,2.9,59,0.00,,,0.00,WUHU216HW,2013-01-26 02:03:00,
2013-01-25 20:08:00,38.3,25.7,30.09,North,0,0.4,2.9,60,0.00,,,0.00,WUHU216HW,2013-01-26 02:08:00,
2013-01-25 20:13:00,38.5,25.8,30.09,North,0,0.0,1.8,60,0.00,,,0.00,WUHU216HW,2013-01-26 02:13:00,
2013-01-25 20:18:00,38.3,25.2,30.09,North,0,0.0,0.4,59,0.00,,,0.00,WUHU216HW,2013-01-26 02:18:00,
2013-01-25 20:23:00,38.0,24.9,30.10,North,0,0.0,0.2,59,0.00,,,0.00,WUHU216HW,2013-01-26 02:23:00,
2013-01-25 20:28:00,37.8,25.2,30.09,North,0,0.0,0.0,60,0.00,,,0.00,WUHU216HW,2013-01-26 02:28:00,
2013-01-25 20:33:00,37.4,24.8,30.09,North,0,0.0,0.0,60,0.00,,,0.00,WUHU216HW,2013-01-26 02:33:00,
2013-01-25 20:38:00,37.1,24.5,30.09,North,0,0.0,0.0,60,0.00,,,0.00,WUHU216HW,2013-01-26 02:38:00,
2013-01-25 20:43:00,36.9,24.4,30.09,North,0,0.2,0.4,60,0.00,,,0.00,WUHU216HW,2013-01-26 02:43:00,
2013-01-25 20:48:00,36.5,24.0,30.09,North,0,0.0,0.4,60,0.00,,,0.00,WUHU216HW,2013-01-26 02:48:00,
2013-01-25 20:53:00,36.4,23.9,30.10,North,0,0.0,0.0,60,0.00,,,0.00,WUHU216HW,2013-01-26 02:53:00,
2013-01-25 20:58:00,36.0,23.6,30.10,North,0,0.0,0.0,60,0.00,,,0.00,WUHU216HW,2013-01-26 02:58:00,
2013-01-25 21:03:00,35.8,23.4,30.10,North,0,0.0,0.0,60,0.00,,,0.00,WUHU216HW,2013-01-26 03:03:00,
2013-01-25 21:08:00,35.6,23.6,30.10,North,0,0.0,0.4,61,0.00,,,0.00,WUHU216HW,2013-01-26 03:08:00,
2013-01-25 21:13:00,35.6,23.6,30.10,West,270,0.0,0.4,61,0.00,,,0.00,WUHU216HW,2013-01-26 03:13:00,
2013-01-25 21:18:00,35.6,23.6,30.11,West,270,0.2,0.2,61,0.00,,,0.00,WUHU216HW,2013-01-26 03:18:00,
2013-01-25 21:23:00,35.5,23.4,30.11,West,270,0.0,0.2,61,0.00,,,0.00,WUHU216HW,2013-01-26 03:23:00,
2013-01-25 21:28:00,35.3,23.2,30.11,West,270,0.0,0.2,61,0.00,,,0.00,WUHU216HW,2013-01-26 03:28:00,
2013-01-25 21:33:00,35.1,23.4,30.12,West,270,0.0,0.0,62,0.00,,,0.00,WUHU216HW,2013-01-26 03:33:00,
2013-01-25 21:38:00,34.9,23.2,30.12,West,270,0.0,0.0,62,0.00,,,0.00,WUHU216HW,2013-01-26 03:38:00,
2013-01-25 21:43:00,34.7,23.0,30.11,West,270,0.0,0.0,62,0.00,,,0.00,WUHU216HW,2013-01-26 03:43:00,
2013-01-25 21:48:00,34.4,23.0,30.12,West,270,0.0,0.0,63,0.00,,,0.00,WUHU216HW,2013-01-26 03:48:00,
2013-01-25 21:53:00,34.4,23.0,30.12,West,270,0.0,0.0,63,0.00,,,0.00,WUHU216HW,2013-01-26 03:53:00,
2013-01-25 21:58:00,34.2,22.9,30.11,West,270,0.0,0.0,63,0.00,,,0.00,WUHU216HW,2013-01-26 03:58:00,
2013-01-25 22:03:00,34.2,22.9,30.12,West,270,0.0,0.0,63,0.00,,,0.00,WUHU216HW,2013-01-26 04:03:00,
2013-01-25 22:08:00,34.2,22.9,30.12,West,270,0.0,0.0,63,0.00,,,0.00,WUHU216HW,2013-01-26 04:08:00,
2013-01-25 22:13:00,34.2,23.2,30.12,West,270,0.0,0.0,64,0.00,,,0.00,WUHU216HW,2013-01-26 04:13:00,
2013-01-25 22:18:00,34.2,23.6,30.12,West,270,0.0,0.0,65,0.00,,,0.00,WUHU216HW,2013-01-26 04:18:00,
2013-01-25 22:23:00,34.2,23.2,30.12,West,270,0.0,0.0,64,0.00,,,0.00,WUHU216HW,2013-01-26 04:23:00,
2013-01-25 22:28:00,34.2,23.2,30.12,West,270,0.0,0.0,64,0.00,,,0.00,WUHU216HW,2013-01-26 04:28:00,
2013-01-25 22:33:00,34.0,23.0,30.12,West,270,0.0,0.0,64,0.00,,,0.00,WUHU216HW,2013-01-26 04:33:00,
2013-01-25 22:38:00,33.8,22.9,30.12,West,270,0.0,0.0,64,0.00,,,0.00,WUHU216HW,2013-01-26 04:38:00,
2013-01-25 22:43:00,33.7,22.7,30.12,West,270,0.0,0.0,64,0.00,,,0.00,WUHU216HW,2013-01-26 04:43:00,
2013-01-25 22:48:00,33.7,23.0,30.12,WNW,293,0.0,0.0,65,0.00,,,0.00,WUHU216HW,2013-01-26 04:48:00,
2013-01-25 22:53:00,33.5,22.9,30.12,NW,315,0.0,0.2,65,0.00,,,0.00,WUHU216HW,2013-01-26 04:53:00,
2013-01-25 22:58:00,33.5,22.9,30.12,NW,315,0.0,0.2,65,0.00,,,0.00,WUHU216HW,2013-01-26 04:58:00,
2013-01-25 23:00:00,33.5,22.9,30.13,NW,315,0.0,0.0,65,0.00,,,0.00,WUHU216HW,2013-01-26 05:00:00,
2013-01-25 23:01:00,33.5,22.9,30.13,NW,315,0.0,0.0,65,0.00,,,0.00,WUHU216HW,2013-01-26 05:01:00,
2013-01-25 23:06:00,33.3,22.8,30.13,NW,315,0.0,0.0,65,0.00,,,0.00,WUHU216HW,2013-01-26 05:06:00,
2013-01-25 23:11:00,33.1,22.6,30.13,NW,315,0.0,0.0,65,0.00,,,0.00,WUHU216HW,2013-01-26 05:11:00,
2013-01-25 23:16:00,33.1,23.0,30.13,NW,315,0.0,0.0,66,0.00,,,0.00,WUHU216HW,2013-01-26 05:16:00,
2013-01-25 23:21:00,32.9,22.8,30.13,NW,315,0.0,0.0,66,0.00,,,0.00,WUHU216HW,2013-01-26 05:21:00,
2013-01-25 23:26:00,32.8,22.6,30.14,NW,315,0.0,0.0,66,0.00,,,0.00,WUHU216HW,2013-01-26 05:26:00,
2013-01-25 23:30:00,32.8,22.6,30.14,NW,315,0.0,0.0,66,0.00,,,0.00,WUHU216HW,2013-01-26 05:30:00,
2013-01-25 23:35:00,32.8,22.6,30.14,NW,315,0.0,0.0,66,0.00,,,0.00,WUHU216HW,2013-01-26 05:35:00,
2013-01-25 23:40:00,32.8,22.6,30.14,NW,315,0.0,0.0,66,0.00,,,0.00,WUHU216HW,2013-01-26 05:40:00,
2013-01-25 23:45:00,32.8,23.0,30.14,NW,315,0.0,0.0,67,0.00,,,0.00,WUHU216HW,2013-01-26 05:45:00,
2013-01-25 23:50:00,32.6,22.8,30.14,NW,315,0.0,0.0,67,0.00,,,0.00,WUHU216HW,2013-01-26 05:50:00,
2013-01-25 23:55:00,32.6,22.8,30.14,NW,315,0.0,0.0,67,0.00,,,0.00,WUHU216HW,2013-01-26 05:55:00,